Time;durP1;ratioP1;P1;durP2;ratioP2;P2;SDS_P1;SDS_P2;PMS_P1;PMS_P2;Temp;Humidity;BMP_temperature;BMP_pressure;BME280_temperature;BME280_humidity;BME280_pressure;Samples;Min_cycle;Max_cycle;Signal;HPM_P1;HPM_P2
2023/02/26 00:01:31;;;;;;;0.80;0.80;;;1.80;78.00;;;1.33;64.04;93841.38;5054358;28;20200;-19
2023/02/26 00:04:01;;;;;;;0.70;0.70;;;1.80;77.90;;;1.22;64.01;93835.59;5057176;28;20494;-19
2023/02/26 00:06:32;;;;;;;0.70;0.70;;;1.80;77.70;;;1.20;64.68;93840.09;5057396;28;20238;-20
2023/02/26 00:08:59;;;;;;;0.70;0.70;;;1.80;77.80;;;1.18;64.79;93836.84;5058003;28;20180;-19
2023/02/26 00:11:27;;;;;;;0.70;0.70;;;1.70;77.80;;;1.13;64.47;93839.13;5058038;28;20646;-19
2023/02/26 00:13:55;;;;;;;0.70;0.70;;;1.70;77.90;;;0.99;64.57;93850.06;5058092;28;20200;-19
2023/02/26 00:16:34;;;;;;;0.70;0.70;;;1.60;77.80;;;0.86;65.58;93851.34;5057915;28;20199;-19
2023/02/26 00:19:05;;;;;;;0.80;0.80;;;1.50;78.10;;;0.86;65.58;93856.50;5057741;28;20242;-19
2023/02/26 00:21:34;;;;;;;0.70;0.70;;;1.40;78.20;;;0.78;65.66;93849.56;5058135;28;20209;-19
2023/02/26 00:24:01;;;;;;;0.80;0.80;;;1.40;78.40;;;0.83;65.32;93859.44;5057771;28;20230;-19
2023/02/26 00:26:30;;;;;;;0.70;0.70;;;1.40;78.50;;;0.85;65.49;93854.09;5057739;28;20196;-20
2023/02/26 00:28:58;;;;;;;0.80;0.80;;;1.40;78.60;;;0.90;65.38;93854.41;5040434;28;20295;-19
2023/02/26 00:31:26;;;;;;;0.70;0.70;;;1.40;78.60;;;0.87;65.37;93847.81;5057755;28;20198;-19
2023/02/26 00:33:56;;;;;;;0.70;0.70;;;1.40;78.50;;;0.95;65.52;93855.56;5040221;28;20269;-19
2023/02/26 00:36:24;;;;;;;0.80;0.80;;;1.40;78.50;;;0.99;65.44;93860.41;5040224;28;20191;-19
2023/02/26 00:39:12;;;;;;;0.70;0.70;;;1.50;78.60;;;0.98;65.55;93851.84;5023726;28;20552;-19
2023/02/26 00:41:39;;;;;;;0.88;0.88;;;1.50;78.60;;;1.00;65.39;93856.84;5056522;28;20234;-19
2023/02/26 00:44:07;;;;;;;0.80;0.80;;;1.50;78.60;;;1.03;65.00;93859.13;5057403;28;20295;-20
2023/02/26 00:47:04;;;;;;;0.70;0.70;;;1.50;78.50;;;1.00;64.72;93862.84;5057341;28;20192;-19
2023/02/26 00:49:46;;;;;;;0.70;0.70;;;1.50;78.40;;;0.95;64.70;93870.25;5040030;28;20622;-19
2023/02/26 00:52:35;;;;;;;0.80;0.80;;;1.50;78.30;;;0.93;64.97;93865.25;5039713;28;20215;-19
2023/02/26 00:55:02;;;;;;;0.70;0.70;;;1.50;78.20;;;0.92;64.85;93871.38;5040446;28;20203;-19
2023/02/26 00:57:29;;;;;;;0.80;0.80;;;1.50;78.20;;;0.92;64.76;93866.19;5057197;28;20207;-19
2023/02/26 00:59:56;;;;;;;0.70;0.70;;;1.40;78.20;;;0.91;65.12;93868.94;5055976;28;20235;-19
2023/02/26 01:02:24;;;;;;;0.80;0.80;;;1.40;78.30;;;0.89;64.87;93871.69;5039800;28;20196;-19
2023/02/26 01:04:51;;;;;;;0.82;0.82;;;1.40;78.40;;;0.88;65.12;93872.66;5039529;28;20208;-20
2023/02/26 01:07:25;;;;;;;0.80;0.80;;;1.40;78.30;;;0.86;64.86;93872.00;5056044;28;20204;-19
2023/02/26 01:09:53;;;;;;;0.90;0.90;;;1.40;78.50;;;0.83;65.03;93871.50;5055884;28;20207;-19
2023/02/26 01:12:20;;;;;;;0.70;0.70;;;1.40;78.50;;;0.86;65.43;93876.38;5056859;28;20298;-20
2023/02/26 01:14:49;;;;;;;0.70;0.70;;;1.40;78.50;;;0.86;65.17;93873.78;5056524;28;20191;-19
2023/02/26 01:17:36;;;;;;;0.75;0.75;;;1.40;78.60;;;0.89;64.65;93878.63;5057077;28;20283;-19
2023/02/26 01:20:15;;;;;;;0.75;0.75;;;1.40;78.50;;;0.91;65.46;93874.91;5055380;28;20683;-19
2023/02/26 01:22:57;;;;;;;0.80;0.80;;;1.40;79.30;;;0.87;64.73;93873.63;5039334;28;20192;-19
2023/02/26 01:25:29;;;;;;;0.80;0.80;;;1.50;78.30;;;0.87;65.15;93883.16;5055737;28;20540;-19
2023/02/26 01:27:57;;;;;;;0.70;0.70;;;1.40;78.30;;;0.89;65.18;93876.84;5039777;28;20181;-19
2023/02/26 01:30:25;;;;;;;0.80;0.80;;;1.40;78.30;;;0.95;65.45;93873.66;5056781;28;20203;-19
2023/02/26 01:33:03;;;;;;;0.70;0.70;;;1.50;78.40;;;1.03;65.08;93877.22;5056522;28;20192;-19
2023/02/26 01:35:48;;;;;;;0.60;0.60;;;1.50;78.50;;;1.05;64.80;93880.41;5057067;28;20199;-19
2023/02/26 01:38:58;;;;;;;0.70;0.70;;;1.50;78.30;;;1.05;64.46;93875.25;5038927;28;20253;-19
2023/02/26 01:41:54;;;;;;;0.70;0.70;;;1.60;78.30;;;0.93;65.03;93874.78;5056390;28;20597;-19
2023/02/26 01:44:40;;;;;;;0.80;0.80;;;1.50;78.30;;;0.89;65.23;93873.44;5055355;28;20193;-19
2023/02/26 01:47:24;;;;;;;0.70;0.70;;;1.50;78.60;;;0.78;65.35;93874.56;5039269;28;20176;-20
2023/02/26 01:49:52;;;;;;;0.70;0.70;;;1.50;78.60;;;0.83;65.81;93877.50;5056183;28;20196;-19
2023/02/26 01:52:34;;;;;;;0.70;0.70;;;1.40;78.50;;;0.94;65.41;93884.09;5039290;28;20200;-19
2023/02/26 01:55:01;;;;;;;0.80;0.80;;;1.40;78.50;;;0.98;65.64;93875.09;5056111;28;20188;-19
2023/02/26 01:57:28;;;;;;;0.80;0.80;;;1.50;78.60;;;0.99;65.36;93879.31;5055086;28;20298;-19
2023/02/26 01:59:55;;;;;;;0.77;0.77;;;1.50;78.60;;;1.07;65.30;93879.28;5038127;28;20679;-19
2023/02/26 02:02:24;;;;;;;0.80;0.80;;;1.50;78.60;;;1.08;65.27;93895.59;5056414;28;20192;-20
2023/02/26 02:04:52;;;;;;;0.80;0.80;;;1.60;78.60;;;1.02;65.36;93894.47;5055816;28;20666;-19
2023/02/26 02:07:19;;;;;;;0.75;0.75;;;1.60;78.60;;;1.05;65.54;93896.75;5038271;28;20231;-19
2023/02/26 02:09:46;;;;;;;0.80;0.80;;;1.60;78.70;;;1.13;65.32;93897.72;5055920;28;20204;-21
2023/02/26 02:12:28;;;;;;;0.80;0.80;;;1.60;78.70;;;1.22;65.01;93907.91;5054746;28;20208;-19
2023/02/26 02:15:17;;;;;;;0.68;0.68;;;1.70;78.50;;;1.24;64.86;93911.13;5055647;28;20531;-19
2023/02/26 02:18:07;;;;;;;0.68;0.68;;;1.70;78.30;;;1.25;64.81;93915.31;5038244;28;20214;-19
2023/02/26 02:21:01;;;;;;;0.70;0.70;;;1.70;78.20;;;1.27;64.74;93913.41;5055310;28;20598;-19
2023/02/26 02:24:06;;;;;;;0.80;0.80;;;1.80;78.30;;;1.33;64.90;93913.72;5056042;28;20176;-20
2023/02/26 02:26:59;;;;;;;0.80;0.80;;;1.80;78.20;;;1.32;64.46;93917.25;5055204;28;20227;-19
2023/02/26 02:29:41;;;;;;;0.70;0.70;;;1.80;78.00;;;1.32;64.27;93918.09;5038224;28;20667;-19
2023/02/26 02:32:16;;;;;;;0.75;0.75;;;1.80;78.00;;;1.27;64.46;93923.72;5055714;28;20276;-19
2023/02/26 02:35:08;;;;;;;0.70;0.70;;;1.80;78.10;;;1.28;64.40;93919.34;5038879;28;20576;-20
2023/02/26 02:37:53;;;;;;;0.70;0.70;;;1.80;78.10;;;1.26;64.40;93929.06;5037793;28;20188;-19
2023/02/26 02:40:32;;;;;;;0.70;0.70;;;1.80;78.10;;;1.18;64.52;93921.28;5055050;28;20200;-19
2023/02/26 02:43:17;;;;;;;0.70;0.70;;;1.80;78.20;;;1.18;65.04;93929.03;5038502;28;20184;-19
2023/02/26 02:45:57;;;;;;;0.70;0.70;;;1.70;78.40;;;1.21;65.13;93918.38;5037691;28;20560;-19
2023/02/26 02:48:52;;;;;;;0.80;0.80;;;1.70;78.40;;;1.25;64.84;93920.50;5023329;28;20180;-19
2023/02/26 02:51:29;;;;;;;0.80;0.80;;;1.80;79.20;;;1.31;64.81;93925.97;5038327;28;20203;-19
2023/02/26 02:54:15;;;;;;;0.70;0.70;;;1.80;78.30;;;1.37;64.59;93931.34;5021221;28;20195;-19
2023/02/26 02:56:52;;;;;;;0.60;0.60;;;1.90;78.20;;;1.40;64.89;93932.78;5055354;28;20181;-19
2023/02/26 02:59:43;;;;;;;0.70;0.70;;;1.90;78.20;;;1.40;64.47;93943.13;5037358;28;20224;-19
2023/02/26 03:02:12;;;;;;;0.70;0.70;;;1.90;78.10;;;1.40;64.22;93941.34;5037569;28;20279;-19
2023/02/26 03:04:41;;;;;;;0.80;0.80;;;2.00;78.00;;;1.36;64.23;93949.59;5037468;28;20196;-19
2023/02/26 03:07:09;;;;;;;0.73;0.73;;;2.00;77.90;;;1.35;64.27;93947.97;5054894;28;20553;-19
2023/02/26 03:09:36;;;;;;;0.80;0.80;;;1.90;77.80;;;1.29;64.25;93939.06;5054989;28;20574;-20
2023/02/26 03:12:03;;;;;;;0.70;0.70;;;1.90;77.70;;;1.25;64.21;93948.09;5054832;28;20191;-19
2023/02/26 03:14:31;;;;;;;0.70;0.70;;;1.80;77.80;;;1.19;64.75;93943.56;5037529;28;20214;-19
2023/02/26 03:17:30;;;;;;;0.70;0.70;;;1.80;77.90;;;1.21;64.90;93944.19;5053880;28;20192;-19
2023/02/26 03:20:33;;;;;;;0.70;0.70;;;1.70;78.10;;;1.26;64.59;93952.31;5037346;28;20232;-19
2023/02/26 03:23:24;;;;;;;0.60;0.60;;;1.80;78.20;;;1.18;65.55;93941.94;5021016;28;20192;-19
2023/02/26 03:26:40;;;;;;;0.63;0.63;;;1.80;78.50;;;1.20;65.69;93956.31;5037617;28;20192;-19
2023/02/26 03:29:29;;;;;;;0.70;0.70;;;1.70;78.70;;;1.14;65.53;93953.56;5036978;28;20658;-19
2023/02/26 03:32:04;;;;;;;0.80;0.80;;;1.70;78.70;;;1.12;65.38;93953.72;5021781;28;20192;-19
2023/02/26 03:34:54;;;;;;;0.77;0.77;;;1.70;78.70;;;1.08;65.39;93965.34;5037247;28;20277;-19
2023/02/26 03:37:28;;;;;;;0.73;0.73;;;1.70;78.80;;;1.07;65.66;93958.53;5054767;28;20196;-19
2023/02/26 03:40:01;;;;;;;0.80;0.80;;;1.70;78.70;;;1.11;66.00;93970.16;5041337;28;20191;-20
2023/02/26 03:42:37;;;;;;;0.80;0.80;;;1.60;78.70;;;1.14;65.96;93963.91;5041586;28;20275;-19
2023/02/26 03:45:22;;;;;;;0.70;0.70;;;1.70;78.70;;;1.19;65.76;93970.19;5041323;28;20199;-19
2023/02/26 03:47:53;;;;;;;0.70;0.70;;;1.70;78.80;;;1.22;66.42;93979.41;5041326;28;20203;-19
2023/02/26 03:50:38;;;;;;;0.75;0.75;;;1.70;78.80;;;1.20;66.01;93989.09;5040750;28;20233;-19
2023/02/26 03:53:39;;;;;;;0.60;0.60;;;1.80;78.80;;;1.17;66.00;93992.78;5042846;28;20232;-19
2023/02/26 03:56:23;;;;;;;0.70;0.70;;;1.70;79.50;;;1.13;65.56;93995.84;5058375;28;20183;-19
2023/02/26 03:59:26;;;;;;;0.80;0.80;;;1.70;78.70;;;1.04;66.19;94006.16;5017035;28;20296;-19
2023/02/26 04:02:26;;;;;;;0.80;0.80;;;1.60;78.70;;;1.08;66.26;94017.78;5055314;28;20211;-19
2023/02/26 04:05:09;;;;;;;0.80;0.80;;;1.60;78.80;;;1.11;66.38;94007.16;5025165;28;20196;-19
2023/02/26 04:07:38;;;;;;;0.80;0.80;;;1.70;78.90;;;1.11;66.06;94008.91;5057449;28;20203;-20
2023/02/26 04:10:07;;;;;;;0.80;0.80;;;1.70;78.70;;;1.14;66.10;94010.41;5023997;28;20206;-19
2023/02/26 04:12:35;;;;;;;0.70;0.70;;;1.70;78.80;;;1.10;65.62;94015.84;5041114;28;20192;-19
2023/02/26 04:15:05;;;;;;;0.70;0.70;;;1.70;78.70;;;1.09;65.69;94013.44;5024554;28;20204;-19
2023/02/26 04:17:32;;;;;;;0.70;0.70;;;1.60;78.70;;;1.17;65.26;94020.41;5057132;28;20697;-19
2023/02/26 04:20:00;;;;;;;0.70;0.70;;;1.70;78.70;;;1.13;65.47;94016.53;5023894;28;20236;-20
2023/02/26 04:22:27;;;;;;;0.60;0.60;;;1.70;78.70;;;1.16;65.56;94017.00;5058411;28;20192;-19
2023/02/26 04:24:55;;;;;;;0.80;0.80;;;1.70;78.70;;;1.19;65.48;94027.03;5040393;28;20509;-19
2023/02/26 04:27:23;;;;;;;0.70;0.70;;;1.70;78.70;;;1.19;65.39;94023.63;5057975;28;20579;-19
2023/02/26 04:29:50;;;;;;;0.70;0.70;;;1.70;78.80;;;1.26;65.31;94030.59;5057205;28;20286;-19
2023/02/26 04:32:17;;;;;;;0.70;0.70;;;1.70;78.70;;;1.24;65.51;94021.38;5056737;28;20266;-20
2023/02/26 04:34:45;;;;;;;0.80;0.80;;;1.80;78.70;;;1.21;64.93;94025.09;5056661;28;20204;-19
2023/02/26 04:37:16;;;;;;;0.90;0.90;;;1.80;78.60;;;1.19;64.65;94032.19;5056739;28;20196;-19
2023/02/26 04:39:43;;;;;;;0.80;0.80;;;1.80;78.50;;;1.19;65.20;94031.38;5056443;28;20238;-19
2023/02/26 04:42:11;;;;;;;0.70;0.70;;;1.80;78.50;;;1.22;64.75;94031.06;5056808;28;20292;-20
2023/02/26 04:44:38;;;;;;;0.80;0.80;;;1.70;78.40;;;1.19;64.97;94034.78;5040208;28;20203;-19
2023/02/26 04:47:05;;;;;;;0.80;0.80;;;1.80;78.50;;;1.25;65.14;94034.16;5056497;28;20224;-19
2023/02/26 04:49:34;;;;;;;0.70;0.70;;;1.80;78.40;;;1.30;64.80;94033.69;5055791;28;20226;-19
2023/02/26 04:52:02;;;;;;;0.80;0.80;;;1.80;78.40;;;1.30;65.04;94044.00;5056377;28;20196;-19
2023/02/26 04:54:30;;;;;;;0.70;0.70;;;1.80;78.40;;;1.32;64.68;94038.69;5056316;28;20204;-19
2023/02/26 04:56:57;;;;;;;0.70;0.70;;;1.80;78.30;;;1.35;64.69;94044.34;5057229;28;20262;-19
2023/02/26 04:59:25;;;;;;;0.70;0.70;;;1.80;78.20;;;1.39;64.51;94044.84;5055985;28;20232;-19
2023/02/26 05:01:52;;;;;;;0.70;0.70;;;1.90;78.20;;;1.44;64.14;94056.34;5039536;28;20196;-19
2023/02/26 05:04:20;;;;;;;0.70;0.70;;;1.90;78.10;;;1.42;64.09;94057.47;5039512;28;20549;-20
2023/02/26 05:06:50;;;;;;;0.70;0.70;;;1.90;78.00;;;1.45;64.24;94064.88;5056256;28;20222;-19
2023/02/26 05:09:19;;;;;;;0.80;0.80;;;2.00;78.10;;;1.44;63.73;94071.84;5039451;28;20215;-19
2023/02/26 05:11:47;;;;;;;0.70;0.70;;;2.00;77.90;;;1.44;63.95;94071.00;5039235;28;20299;-19
2023/02/26 05:14:16;;;;;;;0.70;0.70;;;2.00;77.80;;;1.49;63.83;94079.13;5039333;28;20200;-19
2023/02/26 05:16:46;;;;;;;0.75;0.75;;;2.00;77.70;;;1.54;63.46;94078.66;5039371;28;20192;-19
2023/02/26 05:19:13;;;;;;;0.70;0.70;;;2.00;77.60;;;1.52;62.82;94078.81;5039017;28;20234;-19
2023/02/26 05:21:41;;;;;;;0.80;0.80;;;2.00;77.50;;;1.53;63.41;94092.53;5038954;28;20200;-19
2023/02/26 05:24:08;;;;;;;0.70;0.70;;;2.00;77.40;;;1.55;63.02;94090.59;5055972;28;20203;-19
2023/02/26 05:26:35;;;;;;;0.70;0.70;;;2.00;77.30;;;1.55;62.98;94088.00;5056642;28;20504;-19
2023/02/26 05:29:02;;;;;;;0.80;0.80;;;2.10;77.40;;;1.60;62.96;94101.28;5056624;28;20188;-19
2023/02/26 05:31:29;;;;;;;0.88;0.88;;;2.10;77.20;;;1.58;62.61;94098.84;5055482;28;20249;-19
2023/02/26 05:33:57;;;;;;;0.90;0.90;;;2.10;77.10;;;1.52;62.63;94088.34;5056815;28;20193;-19
2023/02/26 05:36:24;;;;;;;0.70;0.70;;;2.10;77.00;;;1.46;62.70;94100.09;5056464;28;20203;-19
2023/02/26 05:38:52;;;;;;;0.75;0.75;;;2.00;76.90;;;1.40;62.63;94101.56;5056255;28;20261;-19
2023/02/26 05:41:19;;;;;;;0.80;0.80;;;2.00;77.00;;;1.41;62.82;94104.94;5039090;28;20632;-19
2023/02/26 05:43:46;;;;;;;0.70;0.70;;;1.90;77.00;;;1.39;62.39;94106.84;5056333;28;20257;-19
2023/02/26 05:46:13;;;;;;;0.90;0.90;;;1.90;76.90;;;1.34;62.60;94111.69;5039043;28;20189;-19
2023/02/26 05:48:40;;;;;;;0.80;0.80;;;1.90;76.90;;;1.31;62.63;94120.56;5056201;28;20192;-19
2023/02/26 05:51:11;;;;;;;0.80;0.80;;;1.80;77.00;;;1.33;62.75;94123.81;5056051;28;20188;-19
2023/02/26 05:53:38;;;;;;;0.70;0.70;;;1.80;77.00;;;1.25;63.23;94123.75;5056383;28;20309;-20
2023/02/26 05:56:05;;;;;;;0.75;0.75;;;1.80;77.10;;;1.26;62.57;94121.00;5056872;28;20197;-19
2023/02/26 05:58:32;;;;;;;0.70;0.70;;;1.80;77.00;;;1.24;63.38;94125.50;5056054;28;20192;-19
2023/02/26 06:01:00;;;;;;;0.70;0.70;;;1.80;77.20;;;1.22;63.29;94130.03;5055019;28;20227;-19
2023/02/26 06:03:27;;;;;;;0.80;0.80;;;1.80;77.20;;;1.25;63.20;94144.44;5038696;28;20196;-20
2023/02/26 06:05:54;;;;;;;0.70;0.70;;;1.80;77.30;;;1.24;63.12;94135.84;5038841;28;20203;-19
2023/02/26 06:08:21;;;;;;;0.70;0.70;;;1.70;77.20;;;1.23;63.16;94144.59;5055857;28;20234;-19
2023/02/26 06:10:50;;;;;;;0.80;0.80;;;1.80;77.30;;;1.25;63.34;94154.75;5055994;28;20533;-19
2023/02/26 06:13:17;;;;;;;0.70;0.70;;;1.80;77.40;;;1.26;63.58;94157.19;5056033;28;20199;-19
2023/02/26 06:15:48;;;;;;;0.70;0.70;;;1.80;77.30;;;1.28;62.98;94168.19;5022044;28;20291;-20
2023/02/26 06:18:15;;;;;;;0.80;0.80;;;1.80;77.30;;;1.34;63.44;94178.84;5055988;28;20184;-19
2023/02/26 06:20:42;;;;;;;0.80;0.80;;;1.80;78.10;;;1.34;63.66;94177.06;5055728;28;20236;-19
2023/02/26 06:23:09;;;;;;;0.70;0.70;;;1.80;77.40;;;1.34;63.81;94189.19;5055578;28;20196;-20
2023/02/26 06:25:36;;;;;;;0.80;0.80;;;1.80;77.40;;;1.34;63.82;94181.44;5054422;28;20196;-19
2023/02/26 06:28:03;;;;;;;0.70;0.70;;;1.80;77.50;;;1.42;63.51;94190.03;5055650;28;20195;-19
2023/02/26 06:30:30;;;;;;;0.80;0.80;;;1.90;77.50;;;1.46;63.68;94190.53;5055374;28;20203;-19
2023/02/26 06:32:57;;;;;;;0.80;0.80;;;1.90;77.50;;;1.50;63.58;94191.03;5055425;28;20524;-19
2023/02/26 06:35:24;;;;;;;0.70;0.70;;;2.00;77.50;;;1.50;63.74;94197.03;5055650;28;20222;-19
2023/02/26 06:37:51;;;;;;;0.82;0.82;;;2.00;77.50;;;1.54;63.58;94197.53;5055610;28;20207;-19
2023/02/26 06:40:18;;;;;;;0.80;0.80;;;2.00;77.50;;;1.61;63.76;94201.09;5055089;28;20659;-19
2023/02/26 06:42:45;;;;;;;0.70;0.70;;;2.00;77.50;;;1.65;63.77;94207.59;5055269;28;20212;-19
2023/02/26 06:45:12;;;;;;;0.80;0.80;;;2.10;77.50;;;1.74;63.66;94213.63;5055236;28;20192;-19
2023/02/26 06:47:40;;;;;;;0.70;0.70;;;2.20;77.60;;;1.82;63.77;94212.84;5055188;28;20650;-19
2023/02/26 06:50:09;;;;;;;0.70;0.70;;;2.30;77.60;;;1.90;63.65;94208.53;5038141;28;20257;-19
2023/02/26 06:52:36;;;;;;;0.70;0.70;;;2.30;77.50;;;1.98;62.88;94215.50;5055052;28;20574;-19
2023/02/26 06:55:04;;;;;;;0.80;0.80;;;2.40;77.30;;;2.00;62.89;94221.34;5037843;28;20196;-19
2023/02/26 06:57:31;;;;;;;0.73;0.73;;;2.40;77.20;;;2.02;62.72;94226.34;5055031;28;20631;-19
2023/02/26 06:59:58;;;;;;;0.80;0.80;;;2.50;77.00;;;2.02;62.30;94234.09;5054761;28;20655;-19
2023/02/26 07:02:25;;;;;;;0.80;0.80;;;2.50;76.90;;;2.06;62.49;94228.47;5055854;28;20184;-19
2023/02/26 07:04:52;;;;;;;0.60;0.60;;;2.50;76.70;;;2.08;62.31;94244.63;5054892;28;20200;-19
2023/02/26 07:07:19;;;;;;;0.80;0.80;;;2.60;76.70;;;2.09;62.02;94245.44;5055139;28;20283;-20
2023/02/26 07:09:46;;;;;;;0.80;0.80;;;2.60;76.60;;;2.19;62.23;94250.50;5037592;28;20196;-19
2023/02/26 07:12:13;;;;;;;0.80;0.80;;;2.70;76.70;;;2.20;61.36;94244.38;5054620;28;20206;-19
2023/02/26 07:14:41;;;;;;;0.70;0.70;;;2.70;76.60;;;2.27;61.65;94252.28;5055109;28;20208;-19
2023/02/26 07:17:09;;;;;;;0.70;0.70;;;2.70;76.20;;;2.29;61.43;94256.34;5054812;28;20196;-20
2023/02/26 07:19:36;;;;;;;0.75;0.75;;;2.70;76.30;;;2.36;61.56;94259.13;5037426;28;20228;-19
2023/02/26 07:22:03;;;;;;;0.90;0.90;;;2.80;76.40;;;2.40;61.80;94266.44;5037922;28;20196;-20
2023/02/26 07:24:30;;;;;;;0.70;0.70;;;2.90;76.60;;;2.46;62.09;94272.72;5054759;28;20199;-19
2023/02/26 07:26:57;;;;;;;0.80;0.80;;;2.90;76.70;;;2.55;61.95;94279.56;5054216;28;20196;-20
2023/02/26 07:29:24;;;;;;;0.80;0.80;;;3.00;76.70;;;2.64;61.88;94272.63;5053753;28;20199;-19
2023/02/26 07:31:51;;;;;;;0.70;0.70;;;3.10;76.70;;;2.74;61.98;94276.84;5054720;28;20202;-19
2023/02/26 07:34:18;;;;;;;0.80;0.80;;;3.20;76.70;;;2.84;62.28;94280.09;5054600;28;20202;-20
2023/02/26 07:36:45;;;;;;;0.65;0.65;;;3.30;76.80;;;2.95;61.57;94277.19;5054671;28;20279;-20
2023/02/26 07:39:12;;;;;;;0.80;0.80;;;3.40;76.70;;;3.04;60.90;94289.19;5054889;28;20188;-19
2023/02/26 07:41:39;;;;;;;0.70;0.70;;;3.50;76.60;;;3.15;61.10;94282.88;5054557;28;20215;-19
2023/02/26 07:44:13;;;;;;;0.70;0.70;;;3.60;76.30;;;3.25;59.73;94289.66;5053631;28;20606;-19
2023/02/26 07:46:40;;;;;;;0.80;0.80;;;3.70;76.00;;;3.29;58.85;94290.97;5054563;28;20250;-19
2023/02/26 07:49:08;;;;;;;0.80;0.80;;;3.80;75.00;;;3.35;58.07;94288.53;5054456;28;20551;-19
2023/02/26 07:51:36;;;;;;;0.60;0.60;;;3.90;74.60;;;3.43;58.90;94292.09;5054387;28;20196;-19
2023/02/26 07:54:03;;;;;;;0.70;0.70;;;4.00;74.80;;;3.51;58.38;94289.50;5054408;28;20195;-19
2023/02/26 07:56:30;;;;;;;0.80;0.80;;;4.10;74.70;;;3.61;57.86;94297.91;5054697;28;20221;-19
2023/02/26 07:58:57;;;;;;;0.70;0.70;;;4.20;74.40;;;3.71;57.42;94291.75;5054392;28;20188;-19
2023/02/26 08:01:24;;;;;;;0.73;0.73;;;4.20;74.00;;;3.78;56.50;94300.50;5054233;28;20219;-19
2023/02/26 08:03:51;;;;;;;0.70;0.70;;;4.30;73.40;;;3.80;56.09;94306.34;5054899;28;20200;-20
2023/02/26 08:06:18;;;;;;;0.80;0.80;;;4.40;73.20;;;3.86;55.74;94313.47;5036990;28;20192;-20
2023/02/26 08:08:45;;;;;;;0.70;0.70;;;4.50;72.10;;;3.92;54.37;94309.38;5054292;28;20200;-19
2023/02/26 08:11:12;;;;;;;0.70;0.70;;;4.60;72.10;;;3.93;53.43;94313.59;5054354;28;20189;-19
2023/02/26 08:13:39;;;;;;;0.70;0.70;;;4.60;72.10;;;3.96;54.27;94313.28;5054411;28;20254;-20
2023/02/26 08:16:06;;;;;;;0.70;0.70;;;4.70;72.20;;;4.05;54.85;94314.84;5054252;28;20192;-19
2023/02/26 08:18:33;;;;;;;0.70;0.70;;;4.70;72.20;;;4.18;54.89;94319.53;5054201;28;20534;-19
2023/02/26 08:21:00;;;;;;;0.60;0.60;;;4.80;72.20;;;4.31;54.09;94309.44;5053909;28;20263;-19
2023/02/26 08:23:27;;;;;;;0.80;0.80;;;5.00;72.40;;;4.56;53.97;94326.72;5054248;28;20195;-19
2023/02/26 08:26:07;;;;;;;0.80;0.80;;;5.10;72.50;;;4.78;55.00;94320.75;5057714;28;20527;-19
2023/02/26 08:28:35;;;;;;;0.60;0.60;;;5.30;72.60;;;4.97;53.62;94324.69;5057919;28;20176;-19
2023/02/26 08:31:02;;;;;;;0.65;0.65;;;5.50;72.10;;;5.18;52.59;94336.28;5057993;28;20204;-19
2023/02/26 08:33:30;;;;;;;0.70;0.70;;;5.70;71.30;;;5.40;53.91;94333.84;5057994;28;20195;-19
2023/02/26 08:35:57;;;;;;;0.60;0.60;;;5.90;72.00;;;5.49;51.79;94339.81;5057648;28;20529;-19
2023/02/26 08:38:26;;;;;;;0.70;0.70;;;6.10;70.30;;;5.51;51.83;94346.44;5057603;28;20200;-19
2023/02/26 08:40:53;;;;;;;0.70;0.70;;;6.20;70.20;;;5.44;50.95;94354.16;5040332;28;20212;-19
2023/02/26 08:43:20;;;;;;;0.70;0.70;;;6.20;69.30;;;5.36;50.13;94363.78;5056441;28;20590;-19
2023/02/26 08:45:48;;;;;;;0.70;0.70;;;6.20;68.80;;;5.19;51.57;94371.69;5057478;28;20204;-19
2023/02/26 08:48:15;;;;;;;0.80;0.80;;;6.10;69.20;;;5.08;53.09;94374.69;5057440;28;20192;-19
2023/02/26 08:50:42;;;;;;;0.80;0.80;;;6.00;69.40;;;5.05;54.30;94367.22;5039828;28;20218;-19
2023/02/26 08:53:09;;;;;;;0.60;0.60;;;5.90;70.10;;;5.07;54.09;94370.47;5058207;28;20196;-21
2023/02/26 08:55:36;;;;;;;0.60;0.60;;;5.90;70.60;;;5.15;53.20;94375.63;5039669;28;20230;-19
2023/02/26 08:58:04;;;;;;;0.70;0.70;;;6.00;70.40;;;5.26;53.36;94374.41;5057443;28;20196;-19
2023/02/26 09:00:31;;;;;;;0.70;0.70;;;6.00;70.50;;;5.44;54.12;94371.53;5057548;28;20521;-19
2023/02/26 09:02:58;;;;;;;0.50;0.50;;;6.10;70.70;;;5.60;52.70;94370.59;5056456;28;20196;-19
2023/02/26 09:05:25;;;;;;;0.70;0.70;;;6.30;70.70;;;5.76;52.41;94374.88;5057225;28;20200;-19
2023/02/26 09:07:52;;;;;;;0.70;0.70;;;6.40;70.20;;;5.88;51.60;94364.84;5056995;28;20192;-20
2023/02/26 09:10:19;;;;;;;0.70;0.70;;;6.60;69.70;;;5.96;50.58;94382.19;5057818;28;20495;-19
2023/02/26 09:12:46;;;;;;;0.70;0.70;;;6.70;68.80;;;6.00;49.93;94375.69;5055169;28;20211;-19
2023/02/26 09:15:14;;;;;;;0.70;0.70;;;6.80;68.40;;;6.05;51.36;94384.59;5056435;28;20619;-20
2023/02/26 09:17:41;;;;;;;0.60;0.60;;;6.80;68.70;;;6.07;51.48;94390.41;5039242;28;20215;-19
2023/02/26 09:20:10;;;;;;;0.70;0.70;;;6.90;68.80;;;6.11;51.67;94390.06;5056608;28;20239;-19
2023/02/26 09:22:37;;;;;;;0.70;0.70;;;6.90;69.00;;;6.20;50.09;94400.22;5056802;28;20200;-19
2023/02/26 09:25:05;;;;;;;0.70;0.70;;;7.00;68.30;;;6.26;50.12;94396.09;5023099;28;20199;-20
2023/02/26 09:27:34;;;;;;;0.77;0.77;;;7.00;68.30;;;6.28;50.78;94404.53;5057043;28;20224;-19
2023/02/26 09:30:03;;;;;;;0.70;0.70;;;7.00;68.30;;;6.17;49.20;94400.56;5056558;28;20224;-19
2023/02/26 09:32:30;;;;;;;0.70;0.70;;;7.00;67.30;;;5.93;49.17;94412.81;5056595;28;20291;-19
2023/02/26 09:34:57;;;;;;;0.70;0.70;;;6.90;66.80;;;5.67;49.54;94415.75;5056520;28;20266;-19
2023/02/26 09:37:24;;;;;;;0.70;0.70;;;6.70;67.00;;;5.48;50.56;94413.59;5055583;28;20253;-19
2023/02/26 09:39:51;;;;;;;0.70;0.70;;;6.50;67.20;;;5.27;51.13;94421.06;5056325;28;20204;-18
2023/02/26 09:42:30;;;;;;;0.70;0.70;;;6.30;67.60;;;5.18;51.84;94426.47;5038779;28;20200;-19
2023/02/26 09:44:58;;;;;;;0.68;0.68;;;6.10;67.90;;;5.12;52.44;94433.16;5038710;28;20207;-19
2023/02/26 09:47:38;;;;;;;0.70;0.70;;;6.00;68.20;;;5.00;49.66;94430.09;5039278;28;20199;-19
2023/02/26 09:50:12;;;;;;;0.68;0.68;;;5.90;67.00;;;4.97;50.65;94433.06;5054463;28;20199;-21
2023/02/26 09:52:48;;;;;;;0.60;0.60;;;5.80;67.40;;;4.94;51.06;94436.81;5056219;28;20192;-19
2023/02/26 09:55:19;;;;;;;0.70;0.70;;;5.70;67.50;;;4.96;50.03;94439.22;5056460;28;20186;-20
2023/02/26 09:57:51;;;;;;;0.70;0.70;;;5.70;67.30;;;4.87;51.25;94433.25;5056087;28;20197;-19
2023/02/26 10:00:37;;;;;;;0.70;0.70;;;5.60;68.00;;;4.95;51.37;94446.19;5022141;28;20212;-20
2023/02/26 10:03:41;;;;;;;0.80;0.80;;;5.60;68.20;;;5.11;51.66;94442.75;5039258;28;20220;-19
2023/02/26 10:06:14;;;;;;;0.80;0.80;;;5.70;68.60;;;5.20;50.81;94445.28;5054811;28;20204;-19
2023/02/26 10:09:18;;;;;;;0.80;0.80;;;5.80;68.30;;;5.27;51.24;94448.84;5038731;28;20254;-19
2023/02/26 10:12:10;;;;;;;0.60;0.60;;;5.90;68.10;;;5.27;49.31;94449.66;5041108;28;20207;-19
2023/02/26 10:15:03;;;;;;;0.60;0.60;;;5.90;67.10;;;5.30;49.64;94456.31;5022421;28;20520;-19
2023/02/26 10:18:16;;;;;;;0.65;0.65;;;6.00;67.20;;;5.36;50.26;94460.81;5054882;28;20630;-19
2023/02/26 10:21:07;;;;;;;0.70;0.70;;;6.00;67.50;;;5.44;49.45;94459.97;5054262;28;20258;-19
2023/02/26 10:23:45;;;;;;;0.65;0.65;;;6.10;67.20;;;5.50;49.48;94467.06;5054279;28;20280;-19
2023/02/26 10:26:16;;;;;;;0.68;0.68;;;6.10;67.00;;;5.56;48.83;94474.19;5055550;28;20195;-20
2023/02/26 10:29:10;;;;;;;0.70;0.70;;;6.20;66.80;;;5.57;47.63;94481.00;5055623;28;20525;-19
2023/02/26 10:31:58;;;;;;;0.70;0.70;;;6.20;66.40;;;5.53;47.08;94476.31;5022457;28;20287;-19
2023/02/26 10:35:08;;;;;;;0.70;0.70;;;6.20;65.50;;;5.45;47.87;94490.19;5054676;28;20200;-19
2023/02/26 10:38:13;;;;;;;0.50;0.50;;;6.20;65.70;;;5.41;48.12;94492.31;5026266;28;20234;-19
2023/02/26 10:41:01;;;;;;;0.70;0.70;;;6.20;65.60;;;5.38;47.54;94492.69;5054426;28;20228;-19
2023/02/26 10:43:48;;;;;;;0.70;0.70;;;6.10;65.70;;;5.40;48.55;94497.69;5038189;28;20184;-18
2023/02/26 10:46:24;;;;;;;0.63;0.63;;;6.10;66.10;;;5.50;47.70;94497.50;5055605;28;20271;-18
2023/02/26 10:49:18;;;;;;;0.70;0.70;;;6.20;65.70;;;5.38;48.38;94502.25;5055007;28;20572;-19
2023/02/26 10:51:45;;;;;;;0.60;0.60;;;6.10;65.50;;;5.15;50.25;94502.19;5043952;28;20211;-19
2023/02/26 10:54:35;;;;;;;0.70;0.70;;;6.00;66.70;;;5.05;49.95;94508.38;5054529;28;20256;-19
2023/02/26 10:57:02;;;;;;;0.60;0.60;;;5.80;66.60;;;4.95;49.83;94510.38;5053237;28;20208;-20
2023/02/26 10:59:30;;;;;;;0.80;0.80;;;5.70;66.30;;;4.90;49.62;94502.28;5055384;28;20203;-19